Tropical Cyclones
[Index]
Main Index Home Page Stock Weather Photos Extreme Storms Discussion Storm News and Storm Chasing Reports Tropical Cyclones / Hurricanes / Typhoons Weather Data and Links Wild Fires / Bushfires Weather Observation Techniques Weather Picture Catalogue Tornado Pictures and Reports Stock Video Footage and DVDs for sale
Season 2012-2013 Tropical Cyclone GARRY Track Map
Season 2012-2013 Summaries: [BoM-AU] [JTWC-AU] [JTWC-SIO] [JTWC-SPAC] [JTWC-SH]
<<- Previous TC | JTWC 2012-2013 Season | Next TC ->>

click for intensity scale information  Lat/long Grid: Show Hide

 Date Labels: Show Hide

Joint Typhoon Warning Centre Cyclone Data

Name: GARRY

18 Jan 2013 12:00 UTC to 28 Jan 2013 00:00 UTC

    date/time    lat    long     hPa   cat  kts
2013-01-18 12   12.3   173.9    1004         25          
2013-01-18 18   12.6   175.0    1004         25          
2013-01-19 00   13.0   176.3    1004         25          
2013-01-19 06   13.2   177.6    1004         25          
2013-01-19 12   13.2   178.9    1004         25          
2013-01-19 18   13.2   180.0    1000         30          
2013-01-20 00   13.0   178.9W   1000         30          
2013-01-20 06   12.8   177.8W   1000         30          
2013-01-20 12   12.7   176.7W    996         35          
2013-01-20 18   12.3   175.3W    996         35          
2013-01-21 00   11.6   174.0W    996         35          
2013-01-21 06   11.4   172.7W    996         35          
2013-01-21 12   11.6   171.6W    993    1    40          
2013-01-21 18   12.2   170.8W    993    1    40          
2013-01-22 00   12.8   170.1W    989    1    45          
2013-01-22 06   13.0   169.8W    989    1    45          
2013-01-22 12   13.2   169.4W    989    1    45          
2013-01-22 18   13.0   169.1W    989    1    45          
2013-01-23 00   13.5   168.8W    989    1    45          
2013-01-23 06   13.6   168.1W    989    1    45          
2013-01-23 12   13.2   167.5W    989    1    45          
2013-01-23 18   13.1   166.8W    989    1    45          
2013-01-24 00   13.3   165.9W    982    2    55          
2013-01-24 06   13.7   164.9W    974    2    65          
2013-01-24 06   13.7   164.9W    974    2    65          
2013-01-24 12   14.2   163.9W    974    2    65          
2013-01-24 12   14.2   163.9W    974    2    65          
2013-01-24 18   14.7   162.8W    963    3    80          
2013-01-24 18   14.7   162.8W    963    3    80          
2013-01-24 18   14.7   162.8W    963    3    80          
2013-01-25 00   15.4   161.8W    959    3    85          
2013-01-25 00   15.4   161.8W    959    3    85          
2013-01-25 00   15.4   161.8W    959    3    85          
2013-01-25 06   15.6   161.3W    963    3    80          
2013-01-25 06   15.6   161.3W    963    3    80          
2013-01-25 06   15.6   161.3W    963    3    80          
2013-01-25 12   16.1   160.9W    967    3    75          
2013-01-25 12   16.1   160.9W    967    3    75          
2013-01-25 12   16.1   160.9W    967    3    75          
2013-01-25 18   16.6   160.5W    974    2    65          
2013-01-25 18   16.6   160.5W    974    2    65          
2013-01-26 00   17.5   160.1W    982    2    55          
2013-01-26 00   17.5   160.1W    982    2    55          
2013-01-26 06   18.6   159.7W    985    1    50          
2013-01-26 06   18.6   159.7W    985    1    50          
2013-01-26 12   20.0   159.1W    985    1    50          
2013-01-26 12   20.0   159.1W    985    1    50          
2013-01-26 18   21.6   159.0W    989    1    45          
2013-01-27 00   23.2   158.2W    993    1    40          
2013-01-27 06   24.2   157.8W    996         35          
2013-01-27 12   24.9   157.6W   1000         30          
2013-01-27 18   25.5   156.8W   1000         30          
2013-01-28 00   26.6   154.0W   1000         30          
Winds are 1-min average.

Tropical cyclone tracks developed by Michael Bath using data from the Joint Typhoon Warning Centre Best Tracks and Google Maps.


[Australian Severe Weather index] [Copyright Notice] [Email Contacts] [Search This Site] [Privacy Policy]
Document: tropical_cyclone_garry.htm Updated: 28 June 2017